Airfield :







YOU CAN JOIN US ON...

 
LOGIN :

Register | Disclaimer

   EN    FR    IT 

 









Legend :    VFR   Marginal VFR   IFR   Intensive IFR   Very Intensive IFR
Visi :
Ceiling :
>= 8 km
>= 3000ft
5 to 8 km
1000 to 3000 ft
1500m to 5 km
500 to 1000 ft
800 to 1500m
200 to 500 ft
< 800m
< 200 ft
Symbols :   Thunderstorms  Fog  Heavy snow  Heavy precipitations  Wind > 20 kt






- Airport Elevation : 118 ft
- IATA code : YUL


CYUL - Montréal - Pierre-Elliott-Trudeau Int.

CURRENT METAR :
  • 240900Z 23013KT 8SM -RA FEW008 BKN022 OVC040 17/16 A2990 RMK SF2SC4SC2 SLP127 DENSITY ALT 400FT

EXPIRED METARs :
  • 240800Z 24005KT 6SM -RA FEW006 BKN017 OVC035 18/17 A2988 RMK SF1SC5SC2 SLP118 DENSITY ALT 600FT
  • 240747Z 24009KT 3SM -RA SCT005 BKN012 OVC025 18/18 A2989 RMK SF3SC3SC2 SLP122 DENSITY ALT 600FT
  • 240700Z 23005KT 10SM -RA FEW013 OVC033 18/17 A2988 RMK SF1SC7 SLP118 DENSITY ALT 600FT

TAF TAF CYUL
Valid from the 24 at 09:00 until the 25 at 06:00 UTC


240838Z 2409/2506 VRB03KT P6SM -SHRA SCT005 OVC025
TEMPO 2409/2412 VRB12G22KT 3SM SHRA BR BKN005 OVC015
PROB30 2409/2411 VRB15G25KT 2SM TSRA BR BKN007 OVC025CB
FM241200 27010G20KT P6SM FEW012 BKN025
TEMPO 2412/2413 P6SM -SHRA BKN012
BECMG 2414/2416 25012G22KT
FM241600 25012G22KT P6SM SCT030
BECMG 2416/2418 25015G25KT
BECMG 2422/2424 25012KT
FM250300 22010KT P6SM BKN050 RMK NXT FCST BY 241200Z
ATIS : ENG : +1 514-633-3037 FRA : +1 514-633-3034
CZUL FIR / North America



MET'MAP, your aeronautical weather chart ! - Copyright ORBIFLY December 2007 - Disclaimer

ORBIFLY MET'MAP TEAM :

Programming & Development : Alexandra Zaïnal
Concept & original design : Baudouin d'Aumeries
Assistance for programming : Marc-Olivier Méhu
Technical & hardware support : Manuel Goepfert

Contact : metmap@orbifly.com




SOURCES & CREDITS :

   NOAA